createdAt,value
2019-04-07T00:02:54.858Z,58.10
2019-04-07T00:08:01.070Z,58.10
2019-04-07T00:13:09.218Z,58.10
2019-04-07T00:18:15.338Z,58.10
2019-04-07T00:23:22.681Z,58.10
2019-04-07T00:28:33.902Z,58.10
2019-04-07T00:33:41.600Z,58.10
2019-04-07T00:38:47.342Z,58.10
2019-04-07T00:43:55.290Z,58.10
2019-04-07T00:49:01.373Z,58.20
2019-04-07T00:54:07.323Z,58.20
2019-04-07T00:59:14.325Z,58.20
2019-04-07T01:04:21.098Z,58.20
2019-04-07T01:09:26.547Z,58.20
2019-04-07T01:14:33.612Z,58.20
2019-04-07T01:19:39.860Z,58.20
2019-04-07T01:24:45.550Z,58.20
2019-04-07T01:29:51.849Z,58.20
2019-04-07T01:34:57.973Z,58.80
2019-04-07T01:40:06.519Z,58.20
2019-04-07T01:45:31.913Z,58.20
2019-04-07T01:50:45.962Z,58.10
2019-04-07T01:56:18.272Z,58.10
2019-04-07T02:01:40.346Z,58.10
2019-04-07T02:07:10.717Z,58.10
2019-04-07T02:12:38.440Z,58.10
2019-04-07T02:18:00.138Z,58.00
2019-04-07T02:23:16.270Z,57.90
2019-04-07T02:28:41.787Z,57.90
2019-04-07T02:34:12.097Z,58.70
2019-04-07T02:40:11.804Z,57.90
2019-04-07T02:45:31.172Z,57.80
2019-04-07T02:51:03.170Z,57.80
2019-04-07T02:56:27.999Z,57.80
2019-04-07T03:01:53.648Z,57.80
2019-04-07T03:07:19.871Z,57.80
2019-04-07T03:12:44.298Z,57.70
2019-04-07T03:18:10.194Z,57.70
2019-04-07T03:23:31.679Z,57.60
2019-04-07T03:28:53.116Z,57.50
2019-04-07T03:34:18.598Z,57.60
2019-04-07T03:39:35.527Z,57.50
2019-04-07T03:44:56.769Z,57.50
2019-04-07T03:50:17.162Z,57.50
2019-04-07T03:55:51.308Z,57.40
2019-04-07T04:01:25.689Z,57.40
2019-04-07T04:06:49.999Z,57.40
2019-04-07T04:12:07.097Z,57.40
2019-04-07T04:17:13.742Z,57.30
2019-04-07T04:22:21.056Z,57.30
2019-04-07T04:27:28.219Z,57.30
2019-04-07T04:32:35.262Z,57.20
2019-04-07T04:37:46.611Z,57.10
2019-04-07T04:42:48.816Z,57.20
2019-04-07T04:47:56.188Z,57.10
2019-04-07T04:53:02.071Z,57.10
2019-04-07T04:58:11.371Z,56.90
2019-04-07T05:03:18.193Z,57.00
2019-04-07T05:08:24.709Z,57.00
2019-04-07T05:13:31.702Z,57.80
2019-04-07T05:18:38.274Z,57.80
2019-04-07T05:23:45.076Z,57.80
2019-04-07T05:28:52.947Z,57.70
2019-04-07T05:34:01.977Z,57.70
2019-04-07T05:39:10.219Z,57.70
2019-04-07T05:44:16.751Z,57.80
2019-04-07T05:49:24.175Z,57.70
2019-04-07T05:54:29.752Z,57.60
2019-04-07T05:59:36.374Z,57.70
2019-04-07T06:04:52.434Z,57.60
2019-04-07T06:09:58.828Z,57.60
2019-04-07T06:15:06.272Z,57.60
2019-04-07T06:20:18.862Z,57.70
2019-04-07T06:25:25.051Z,57.70
2019-04-07T06:31:14.008Z,57.00
2019-04-07T06:36:35.486Z,56.90
2019-04-07T06:41:42.220Z,57.00
2019-04-07T06:47:05.485Z,57.00
2019-04-07T06:52:22.657Z,57.00
2019-04-07T06:57:52.613Z,57.00
2019-04-07T07:03:22.642Z,57.10
2019-04-07T07:08:47.269Z,57.20
2019-04-07T07:14:14.046Z,57.10
2019-04-07T07:19:38.158Z,57.30
2019-04-07T07:24:46.795Z,57.30
2019-04-07T07:30:06.582Z,57.40
2019-04-07T07:35:14.476Z,57.40
2019-04-07T07:40:18.523Z,57.40
2019-04-07T07:45:25.056Z,57.60
2019-04-07T07:50:31.742Z,57.50
2019-04-07T07:55:38.742Z,57.60
2019-04-07T08:00:47.010Z,57.60
2019-04-07T08:05:56.527Z,57.60
2019-04-07T08:11:03.666Z,57.60
2019-04-07T08:16:10.936Z,57.70
2019-04-07T08:21:19.965Z,57.60
2019-04-07T08:26:27.777Z,57.70
2019-04-07T08:31:37.278Z,57.70
2019-04-07T08:36:45.398Z,57.70
2019-04-07T08:41:54.801Z,57.80
2019-04-07T08:47:02.834Z,57.70
2019-04-07T08:52:11.238Z,58.40
2019-04-07T08:57:16.947Z,57.80
2019-04-07T09:02:27.241Z,57.80
2019-04-07T09:07:33.368Z,57.80
2019-04-07T09:12:40.764Z,57.90
2019-04-07T09:17:59.991Z,57.90
2019-04-07T09:23:31.202Z,57.80
2019-04-07T09:28:46.357Z,57.80
2019-04-07T09:34:08.052Z,57.90
2019-04-07T09:39:50.723Z,57.90
2019-04-07T09:45:02.074Z,57.80
2019-04-07T09:50:31.291Z,57.90
2019-04-07T09:55:56.812Z,57.90
2019-04-07T10:01:09.944Z,57.90
2019-04-07T10:06:35.386Z,57.90
2019-04-07T10:12:04.769Z,58.00
2019-04-07T10:17:28.916Z,58.00
2019-04-07T10:22:51.830Z,58.00
2019-04-07T10:28:15.550Z,57.90
2019-04-07T10:33:36.356Z,57.90
2019-04-07T10:39:04.280Z,57.70
2019-04-07T10:44:29.187Z,57.80
2019-04-07T10:50:02.380Z,57.80
2019-04-07T10:55:13.056Z,57.70
2019-04-07T11:00:50.664Z,57.70
2019-04-07T11:06:16.663Z,57.80
2019-04-07T11:11:48.147Z,57.70
2019-04-07T11:17:01.253Z,57.70
2019-04-07T11:22:33.113Z,57.50
2019-04-07T11:27:59.456Z,57.70
2019-04-07T11:33:34.087Z,57.50
2019-04-07T11:39:11.142Z,57.50
2019-04-07T11:44:30.163Z,57.40
2019-04-07T11:49:55.662Z,57.40
2019-04-07T11:55:13.868Z,57.40
2019-04-07T12:00:48.804Z,57.30
2019-04-07T12:06:17.996Z,57.30
2019-04-07T12:17:52.423Z,57.10
2019-04-07T12:23:08.268Z,57.00
2019-04-07T12:28:31.662Z,57.10
2019-04-07T12:33:47.423Z,57.00
2019-04-07T12:39:18.934Z,56.80
2019-04-07T12:44:39.898Z,56.90
2019-04-07T12:50:15.472Z,56.70
2019-04-07T13:01:31.818Z,56.60
2019-04-07T13:07:01.380Z,56.40
2019-04-07T13:12:25.018Z,56.40
2019-04-07T13:17:50.559Z,56.20
2019-04-07T13:23:09.615Z,56.10
2019-04-07T13:28:35.913Z,56.20
2019-04-07T13:33:53.329Z,56.10
2019-04-07T13:39:27.542Z,56.20
2019-04-07T13:44:52.656Z,56.10
2019-04-07T13:50:16.467Z,56.10
2019-04-07T13:55:59.573Z,56.10
2019-04-07T14:01:25.691Z,55.70
2019-04-07T14:07:03.525Z,55.80
2019-04-07T14:12:37.822Z,55.80
2019-04-07T14:18:03.621Z,55.70
2019-04-07T14:23:42.863Z,55.60
2019-04-07T14:29:07.484Z,55.60
2019-04-07T14:34:43.920Z,55.40
2019-04-07T14:39:56.970Z,55.40
2019-04-07T14:45:30.610Z,55.30
2019-04-07T14:50:52.673Z,55.30
2019-04-07T14:56:17.583Z,55.20
2019-04-07T15:01:29.293Z,54.90
2019-04-07T15:06:35.516Z,55.00
2019-04-07T15:11:55.397Z,54.90
2019-04-07T15:17:01.975Z,54.90
2019-04-07T15:22:07.885Z,54.70
2019-04-07T15:27:14.399Z,54.60
2019-04-07T15:32:26.582Z,54.70
2019-04-07T15:37:30.634Z,54.50
2019-04-07T15:42:42.824Z,54.40
2019-04-07T15:47:44.560Z,54.30
2019-04-07T15:52:51.457Z,54.20
2019-04-07T15:57:58.384Z,54.40
2019-04-07T16:03:14.354Z,54.10
2019-04-07T16:08:21.753Z,54.10
2019-04-07T16:13:28.124Z,54.00
2019-04-07T16:18:39.503Z,54.10
2019-04-07T16:23:50.252Z,54.10
2019-04-07T16:28:55.193Z,53.60
2019-04-07T16:34:19.175Z,54.10
2019-04-07T16:39:34.468Z,54.10
2019-04-07T16:44:43.269Z,54.10
2019-04-07T16:50:03.223Z,54.10
2019-04-07T16:55:30.485Z,54.10
2019-04-07T17:00:57.977Z,54.10
2019-04-07T17:06:07.428Z,54.00
2019-04-07T17:11:22.530Z,53.90
2019-04-07T17:16:29.067Z,54.00
2019-04-07T17:21:37.667Z,54.00
2019-04-07T17:26:42.394Z,53.90
2019-04-07T17:31:50.847Z,53.90
2019-04-07T17:36:56.519Z,53.90
2019-04-07T17:42:01.935Z,53.80
2019-04-07T17:47:27.899Z,53.80
2019-04-07T17:52:53.425Z,53.70
2019-04-07T17:58:20.363Z,53.70
2019-04-07T18:03:41.245Z,53.70
2019-04-07T18:09:06.215Z,53.70
2019-04-07T18:14:15.851Z,53.70
2019-04-07T18:19:52.119Z,53.60
2019-04-07T18:25:08.914Z,53.70
2019-04-07T18:30:36.992Z,53.60
2019-04-07T18:36:17.863Z,53.70
2019-04-07T18:41:41.536Z,53.60
2019-04-07T18:47:02.582Z,53.70
2019-04-07T18:58:12.938Z,53.60
2019-04-07T19:03:51.938Z,53.60
2019-04-07T19:09:15.024Z,54.30
2019-04-07T19:14:45.972Z,53.50
2019-04-07T19:20:17.264Z,53.50
2019-04-07T19:25:41.947Z,53.60
2019-04-07T19:31:10.748Z,53.60
2019-04-07T19:36:48.658Z,53.60
2019-04-07T19:42:14.474Z,53.50
2019-04-07T19:47:41.716Z,54.20
2019-04-07T19:53:04.999Z,53.50
2019-04-07T19:58:32.730Z,53.40
2019-04-07T20:03:59.756Z,53.40
2019-04-07T20:09:32.823Z,53.30
2019-04-07T20:15:08.848Z,53.30
2019-04-07T20:20:35.828Z,53.20
2019-04-07T20:25:50.798Z,53.20
2019-04-07T20:31:20.840Z,53.10
2019-04-07T20:36:51.711Z,53.10
2019-04-07T20:42:18.013Z,53.00
2019-04-07T20:47:52.080Z,53.00
2019-04-07T20:53:23.983Z,53.00
2019-04-07T20:58:47.342Z,53.00
2019-04-07T21:03:55.631Z,52.90
2019-04-07T21:09:19.468Z,52.90
2019-04-07T21:14:50.294Z,52.90
2019-04-07T21:20:27.753Z,52.90
2019-04-07T21:25:48.961Z,52.90
2019-04-07T21:31:08.236Z,52.80
2019-04-07T21:36:48.730Z,52.70
2019-04-07T21:42:18.656Z,52.60
2019-04-07T21:47:50.345Z,52.60
2019-04-07T21:53:22.912Z,52.60
2019-04-07T21:58:54.887Z,52.50
2019-04-07T22:04:20.639Z,52.60
2019-04-07T22:09:42.833Z,52.50
2019-04-07T22:14:51.366Z,52.40
2019-04-07T22:19:57.018Z,52.40
2019-04-07T22:25:07.093Z,52.40
2019-04-07T22:30:14.364Z,52.40
2019-04-07T22:35:21.051Z,52.30
2019-04-07T22:40:26.765Z,53.00
2019-04-07T22:45:33.231Z,52.20
2019-04-07T22:50:41.251Z,52.20
2019-04-07T22:55:47.417Z,52.30
2019-04-07T23:00:54.293Z,52.20
2019-04-07T23:06:01.371Z,52.10
2019-04-07T23:11:08.504Z,52.20
2019-04-07T23:16:16.541Z,52.10
2019-04-07T23:21:23.474Z,52.10
2019-04-07T23:26:34.129Z,52.10
2019-04-07T23:31:40.923Z,52.00
2019-04-07T23:36:47.881Z,52.00
2019-04-07T23:41:53.806Z,52.10
2019-04-07T23:47:01.145Z,52.00
2019-04-07T23:52:08.956Z,52.00
2019-04-07T23:57:16.485Z,52.00
